Time;durP1;ratioP1;P1;durP2;ratioP2;P2;SDS_P1;SDS_P2;PMS_P1;PMS_P2;Temp;Humidity;BMP_temperature;BMP_pressure;BME280_temperature;BME280_humidity;BME280_pressure;Samples;Min_cycle;Max_cycle;Signal;HPM_P1;HPM_P2
2023/08/30 00:01:56;;;;;;;1.40;1.30;;;;;;;;;;5054851;28;20032;-79
2023/08/30 00:04:22;;;;;;;2.33;1.42;;;;;;;;;;5055477;28;20090;-79
2023/08/30 00:06:47;;;;;;;3.13;1.50;;;;;;;;;;5056148;28;20021;-79
2023/08/30 00:09:13;;;;;;;1.75;1.35;;;;;;;;;;5055846;28;20033;-79
2023/08/30 00:11:38;;;;;;;1.55;1.40;;;;;;;;;;5054451;28;20053;-79
2023/08/30 00:14:06;;;;;;;1.40;1.30;;;;;;;;;;5055167;28;20036;-79
2023/08/30 00:16:32;;;;;;;2.58;1.50;;;;;;;;;;5054590;28;20024;-79
2023/08/30 00:18:58;;;;;;;1.58;1.48;;;;;;;;;;5054770;28;20032;-79
2023/08/30 00:21:24;;;;;;;1.52;1.30;;;;;;;;;;5054845;28;20041;-79
2023/08/30 00:23:50;;;;;;;1.63;1.23;;;;;;;;;;5037878;28;20487;-79
2023/08/30 00:26:15;;;;;;;1.92;1.60;;;;;;;;;;5054733;28;20061;-79
2023/08/30 00:28:40;;;;;;;1.60;1.50;;;;;;;;;;5055770;28;20021;-79
2023/08/30 00:31:06;;;;;;;1.60;1.27;;;;;;;;;;5054311;28;20040;-79
2023/08/30 00:33:31;;;;;;;1.95;1.52;;;;;;;;;;5037511;28;20106;-79
2023/08/30 00:35:58;;;;;;;1.77;1.50;;;;;;;;;;5054151;28;20032;-79
2023/08/30 00:38:24;;;;;;;1.50;1.40;;;;;;;;;;5054122;28;20112;-79
2023/08/30 00:40:49;;;;;;;1.63;1.50;;;;;;;;;;5054032;28;20120;-80
2023/08/30 00:43:14;;;;;;;1.30;1.20;;;;;;;;;;5053991;28;20045;-79
2023/08/30 00:45:40;;;;;;;1.67;1.40;;;;;;;;;;5055485;28;20033;-79
2023/08/30 00:48:06;;;;;;;2.03;1.48;;;;;;;;;;5053838;28;20510;-79
2023/08/30 00:50:31;;;;;;;1.23;1.13;;;;;;;;;;5054008;28;20060;-79
2023/08/30 00:52:57;;;;;;;1.45;1.35;;;;;;;;;;5037239;28;20036;-79
2023/08/30 00:55:22;;;;;;;1.67;1.58;;;;;;;;;;5054496;28;20040;-79
2023/08/30 00:57:47;;;;;;;1.83;1.40;;;;;;;;;;5054027;28;20503;-79
2023/08/30 01:00:13;;;;;;;2.58;1.27;;;;;;;;;;5055055;28;20050;-79
2023/08/30 01:02:39;;;;;;;1.55;1.38;;;;;;;;;;5055558;28;20033;-79
2023/08/30 01:05:04;;;;;;;2.25;1.50;;;;;;;;;;5053463;28;20029;-79
2023/08/30 01:07:30;;;;;;;1.60;1.40;;;;;;;;;;5054738;28;20037;-80
2023/08/30 01:09:56;;;;;;;1.65;1.55;;;;;;;;;;5053657;28;20029;-79
2023/08/30 01:12:30;;;;;;;1.60;1.50;;;;;;;;;;5054594;28;20136;-79
2023/08/30 01:15:05;;;;;;;2.80;1.30;;;;;;;;;;5053551;28;20115;-79
2023/08/30 01:17:31;;;;;;;2.10;1.80;;;;;;;;;;5055647;28;20116;-80
2023/08/30 01:19:59;;;;;;;1.60;1.50;;;;;;;;;;5054839;28;20177;-79
2023/08/30 01:22:43;;;;;;;1.77;1.58;;;;;;;;;;5053318;28;20025;-80
2023/08/30 01:25:08;;;;;;;;;;;;;;;;;;5053691;28;20051;-79
2023/08/30 01:27:36;;;;;;;2.55;1.42;;;;;;;;;;5054380;28;19912;-79
2023/08/30 01:30:02;;;;;;;1.30;1.20;;;;;;;;;;5053326;28;20079;-80
2023/08/30 01:32:28;;;;;;;2.13;1.52;;;;;;;;;;5053286;28;20418;-80
2023/08/30 01:34:55;;;;;;;2.58;1.52;;;;;;;;;;5054418;28;20044;-80
2023/08/30 01:37:21;;;;;;;3.30;1.55;;;;;;;;;;5053146;28;20052;-79
2023/08/30 01:39:47;;;;;;;5.20;1.60;;;;;;;;;;5053664;28;20460;-79
2023/08/30 01:42:14;;;;;;;1.80;1.50;;;;;;;;;;5053191;28;20488;-79
2023/08/30 01:44:41;;;;;;;1.48;1.33;;;;;;;;;;5053270;28;20046;-80
2023/08/30 01:47:06;;;;;;;1.42;1.33;;;;;;;;;;5052978;28;20511;-80
2023/08/30 01:49:32;;;;;;;1.70;1.40;;;;;;;;;;5054138;28;20025;-80
2023/08/30 01:51:58;;;;;;;2.00;1.75;;;;;;;;;;5052732;28;20112;-80
2023/08/30 01:54:24;;;;;;;1.70;1.60;;;;;;;;;;5036091;28;20116;-80
2023/08/30 01:56:49;;;;;;;1.63;1.50;;;;;;;;;;5052812;28;20056;-80
2023/08/30 01:59:15;;;;;;;1.90;1.30;;;;;;;;;;5052628;28;20052;-79
2023/08/30 02:01:40;;;;;;;2.00;1.38;;;;;;;;;;5052594;28;20024;-80
2023/08/30 02:04:06;;;;;;;1.40;1.30;;;;;;;;;;5054061;28;20077;-79
2023/08/30 02:06:55;;;;;;;3.03;1.38;;;;;;;;;;5052311;28;20052;-80
2023/08/30 02:09:40;;;;;;;1.65;1.30;;;;;;;;;;5051903;28;20025;-80
2023/08/30 02:12:11;;;;;;;1.98;1.42;;;;;;;;;;5052341;28;20079;-79
2023/08/30 02:14:38;;;;;;;1.65;1.50;;;;;;;;;;5052380;28;20025;-79
2023/08/30 02:17:04;;;;;;;1.65;1.50;;;;;;;;;;5052909;28;20131;-79
2023/08/30 02:19:30;;;;;;;1.63;1.52;;;;;;;;;;5052220;28;20024;-79
2023/08/30 02:21:55;;;;;;;2.20;1.70;;;;;;;;;;5053553;28;20369;-79
2023/08/30 02:24:21;;;;;;;1.92;1.67;;;;;;;;;;5052316;28;20041;-80
2023/08/30 02:26:46;;;;;;;2.58;1.60;;;;;;;;;;5052079;28;20098;-80
2023/08/30 02:29:13;;;;;;;2.95;1.50;;;;;;;;;;5052000;28;20037;-80
2023/08/30 02:31:38;;;;;;;2.05;1.65;;;;;;;;;;5052060;28;20033;-80
2023/08/30 02:34:03;;;;;;;2.15;1.50;;;;;;;;;;5051988;28;20036;-79
2023/08/30 02:36:29;;;;;;;1.70;1.60;;;;;;;;;;5053193;28;20115;-79
2023/08/30 02:38:54;;;;;;;2.00;1.80;;;;;;;;;;5053389;28;20025;-79
2023/08/30 02:41:20;;;;;;;1.83;1.63;;;;;;;;;;5053679;28;20029;-80
2023/08/30 02:43:45;;;;;;;3.45;1.77;;;;;;;;;;5053095;28;20029;-79
2023/08/30 02:46:10;;;;;;;1.77;1.60;;;;;;;;;;5053307;28;20099;-79
2023/08/30 02:48:36;;;;;;;1.60;1.50;;;;;;;;;;5053027;28;20051;-80
2023/08/30 02:51:01;;;;;;;2.15;1.65;;;;;;;;;;5051884;28;20029;-80
2023/08/30 02:53:26;;;;;;;1.67;1.58;;;;;;;;;;5051995;28;20036;-79
2023/08/30 02:55:55;;;;;;;1.77;1.45;;;;;;;;;;5051826;28;20059;-79
2023/08/30 02:58:21;;;;;;;2.10;1.60;;;;;;;;;;5051814;28;20032;-78
2023/08/30 03:00:46;;;;;;;2.10;1.63;;;;;;;;;;5051976;28;20033;-79
2023/08/30 03:03:11;;;;;;;2.88;1.60;;;;;;;;;;5053170;28;20029;-79
2023/08/30 03:05:37;;;;;;;1.65;1.55;;;;;;;;;;5053138;28;20037;-79
2023/08/30 03:08:03;;;;;;;1.83;1.67;;;;;;;;;;5051605;28;20080;-79
2023/08/30 03:10:29;;;;;;;2.10;1.88;;;;;;;;;;5052920;28;20049;-79
2023/08/30 03:12:54;;;;;;;1.98;1.70;;;;;;;;;;5051933;28;20033;-79
2023/08/30 03:15:19;;;;;;;2.03;1.75;;;;;;;;;;5053079;28;20112;-79
2023/08/30 03:17:45;;;;;;;1.83;1.63;;;;;;;;;;5053234;28;20041;-79
2023/08/30 03:20:11;;;;;;;3.05;1.80;;;;;;;;;;5054454;28;20033;-79
2023/08/30 03:22:36;;;;;;;2.40;1.90;;;;;;;;;;5057176;28;20041;-79
2023/08/30 03:25:03;;;;;;;2.25;1.52;;;;;;;;;;5055672;28;20033;-79
2023/08/30 03:27:29;;;;;;;2.60;2.00;;;;;;;;;;5056743;28;20464;-80
2023/08/30 03:29:55;;;;;;;2.08;1.88;;;;;;;;;;5055508;28;20036;-80
2023/08/30 03:32:21;;;;;;;1.90;1.80;;;;;;;;;;5055472;28;20021;-79
2023/08/30 03:34:47;;;;;;;1.80;1.60;;;;;;;;;;5055444;28;20037;-80
2023/08/30 03:37:14;;;;;;;2.67;1.95;;;;;;;;;;5057095;28;20215;-80
2023/08/30 03:39:39;;;;;;;7.00;1.92;;;;;;;;;;5055585;28;20021;-80
2023/08/30 03:42:05;;;;;;;2.38;2.10;;;;;;;;;;5055258;28;20369;-80
2023/08/30 03:44:30;;;;;;;2.75;1.95;;;;;;;;;;5055242;28;20056;-80
2023/08/30 03:46:56;;;;;;;4.22;1.88;;;;;;;;;;5038708;28;20467;-79
2023/08/30 03:49:22;;;;;;;5.45;2.10;;;;;;;;;;5056819;28;20090;-79
2023/08/30 03:51:48;;;;;;;2.63;1.98;;;;;;;;;;5055117;28;20054;-79
2023/08/30 03:54:16;;;;;;;4.43;2.10;;;;;;;;;;5056274;28;20119;-79
2023/08/30 03:56:44;;;;;;;2.05;1.88;;;;;;;;;;5056458;28;20033;-80
2023/08/30 03:59:10;;;;;;;2.80;2.00;;;;;;;;;;5054993;28;20025;-79
2023/08/30 04:01:36;;;;;;;2.40;1.83;;;;;;;;;;5056578;28;20427;-79
2023/08/30 04:04:01;;;;;;;2.72;2.08;;;;;;;;;;5057890;28;20029;-78
2023/08/30 04:06:27;;;;;;;2.20;2.00;;;;;;;;;;5059096;28;20116;-78
2023/08/30 04:08:52;;;;;;;2.47;2.15;;;;;;;;;;5056251;28;20039;-78
2023/08/30 04:11:18;;;;;;;2.50;2.30;;;;;;;;;;5056594;28;20130;-78
2023/08/30 04:13:43;;;;;;;3.60;1.98;;;;;;;;;;5057279;28;20073;-78
2023/08/30 04:16:08;;;;;;;2.75;2.30;;;;;;;;;;5054953;28;20028;-79
2023/08/30 04:18:34;;;;;;;3.33;2.25;;;;;;;;;;5054723;28;20039;-79
2023/08/30 04:21:01;;;;;;;3.15;2.20;;;;;;;;;;5054604;28;20033;-79
2023/08/30 04:23:27;;;;;;;2.83;2.28;;;;;;;;;;5054432;28;20040;-79
2023/08/30 04:25:52;;;;;;;4.35;2.60;;;;;;;;;;5054424;28;20028;-79
2023/08/30 04:28:18;;;;;;;5.35;2.60;;;;;;;;;;5054516;28;20025;-78
2023/08/30 04:30:43;;;;;;;6.47;2.50;;;;;;;;;;5052468;28;20033;-78
2023/08/30 04:33:08;;;;;;;4.35;2.70;;;;;;;;;;5054881;28;20099;-77
2023/08/30 04:35:34;;;;;;;5.75;2.95;;;;;;;;;;5053369;28;20492;-78
2023/08/30 04:38:00;;;;;;;5.15;2.90;;;;;;;;;;5054697;28;20025;-78
2023/08/30 04:40:26;;;;;;;3.88;2.55;;;;;;;;;;5053461;28;20472;-77
2023/08/30 04:42:51;;;;;;;4.60;2.72;;;;;;;;;;5054755;28;20029;-77
2023/08/30 04:45:16;;;;;;;5.28;2.67;;;;;;;;;;5055615;28;20040;-77
2023/08/30 04:47:43;;;;;;;6.82;3.20;;;;;;;;;;5054386;28;20136;-78
2023/08/30 04:50:09;;;;;;;7.53;3.03;;;;;;;;;;5056032;28;20484;-78
2023/08/30 04:52:34;;;;;;;5.93;2.60;;;;;;;;;;5055849;28;20082;-79
2023/08/30 04:55:00;;;;;;;6.35;3.53;;;;;;;;;;5053640;28;20061;-80
2023/08/30 04:57:25;;;;;;;3.78;2.90;;;;;;;;;;5054706;28;20511;-79
2023/08/30 04:59:50;;;;;;;4.90;2.92;;;;;;;;;;5054991;28;20021;-80
2023/08/30 05:02:16;;;;;;;5.28;3.08;;;;;;;;;;5056004;28;20037;-78
2023/08/30 05:04:41;;;;;;;6.72;3.33;;;;;;;;;;5054819;28;20052;-79
2023/08/30 05:07:07;;;;;;;22.02;5.85;;;;;;;;;;5053914;28;20039;-79
2023/08/30 05:09:33;;;;;;;23.38;8.50;;;;;;;;;;5054485;28;20025;-79
2023/08/30 05:11:58;;;;;;;23.70;8.00;;;;;;;;;;5055621;28;20057;-78
2023/08/30 05:14:23;;;;;;;23.90;8.13;;;;;;;;;;5021260;28;20025;-78
2023/08/30 05:16:49;;;;;;;17.27;7.15;;;;;;;;;;5055930;28;20028;-79
2023/08/30 05:19:16;;;;;;;17.95;7.53;;;;;;;;;;5054717;28;20033;-79
2023/08/30 05:21:42;;;;;;;16.30;6.57;;;;;;;;;;5054376;28;20124;-78
2023/08/30 05:24:08;;;;;;;15.65;6.45;;;;;;;;;;5055165;28;20096;-78
2023/08/30 05:26:33;;;;;;;17.88;6.55;;;;;;;;;;5053646;28;20491;-79
2023/08/30 05:28:58;;;;;;;17.60;5.85;;;;;;;;;;5056824;28;20028;-79
2023/08/30 05:31:24;;;;;;;14.23;5.95;;;;;;;;;;5057465;28;20033;-79
2023/08/30 05:33:49;;;;;;;13.43;5.63;;;;;;;;;;5056677;28;20082;-79
2023/08/30 05:36:15;;;;;;;12.23;5.50;;;;;;;;;;5055673;28;20056;-78
2023/08/30 05:38:41;;;;;;;11.73;5.38;;;;;;;;;;5057070;28;20021;-79
2023/08/30 05:41:07;;;;;;;12.20;4.68;;;;;;;;;;5054553;28;20487;-79
2023/08/30 05:43:32;;;;;;;10.90;4.70;;;;;;;;;;5055816;28;20104;-78
2023/08/30 05:46:02;;;;;;;15.18;4.55;;;;;;;;;;5056329;28;20060;-79
2023/08/30 05:48:28;;;;;;;10.90;4.22;;;;;;;;;;5054674;28;20033;-78
2023/08/30 05:50:53;;;;;;;7.90;4.45;;;;;;;;;;5055984;28;20440;-79
2023/08/30 05:53:19;;;;;;;10.00;4.50;;;;;;;;;;5056122;28;20480;-79
2023/08/30 05:55:44;;;;;;;8.02;4.55;;;;;;;;;;5057223;28;20115;-79
2023/08/30 05:58:10;;;;;;;7.88;4.28;;;;;;;;;;5055853;28;20459;-79
2023/08/30 06:00:35;;;;;;;6.85;4.22;;;;;;;;;;5055376;28;20050;-79
2023/08/30 06:03:00;;;;;;;5.75;3.40;;;;;;;;;;5039009;28;20123;-79
2023/08/30 06:05:26;;;;;;;6.60;3.65;;;;;;;;;;5055400;28;20029;-79
2023/08/30 06:07:52;;;;;;;6.18;3.50;;;;;;;;;;5055959;28;20028;-79
2023/08/30 06:10:18;;;;;;;4.15;3.40;;;;;;;;;;5055775;28;20032;-79
2023/08/30 06:12:43;;;;;;;6.75;3.28;;;;;;;;;;5057539;28;20136;-79
2023/08/30 06:15:09;;;;;;;6.10;3.85;;;;;;;;;;5037578;28;20045;-79
2023/08/30 06:17:35;;;;;;;7.50;3.60;;;;;;;;;;5037420;28;20132;-79
2023/08/30 06:20:00;;;;;;;6.85;2.97;;;;;;;;;;5054129;28;20060;-80
2023/08/30 06:22:25;;;;;;;5.18;3.10;;;;;;;;;;5037592;28;20096;-79
2023/08/30 06:24:51;;;;;;;6.10;3.10;;;;;;;;;;5021507;28;20086;-79
2023/08/30 06:27:16;;;;;;;6.07;3.42;;;;;;;;;;5054657;28;20435;-79
2023/08/30 06:29:42;;;;;;;5.07;3.38;;;;;;;;;;5054706;28;20036;-79
2023/08/30 06:32:07;;;;;;;5.10;3.08;;;;;;;;;;5052167;28;20083;-79
2023/08/30 06:34:32;;;;;;;5.53;3.30;;;;;;;;;;5052556;28;20029;-79
2023/08/30 06:36:58;;;;;;;5.20;3.17;;;;;;;;;;5053588;28;20074;-79
2023/08/30 06:39:23;;;;;;;4.00;2.97;;;;;;;;;;5053564;28;20487;-79
2023/08/30 06:41:49;;;;;;;3.85;2.67;;;;;;;;;;5052384;28;20083;-79
2023/08/30 06:44:15;;;;;;;4.50;3.10;;;;;;;;;;5052508;28;20025;-79
2023/08/30 06:46:40;;;;;;;3.63;2.83;;;;;;;;;;5052243;28;20032;-79
2023/08/30 06:49:09;;;;;;;4.30;2.58;;;;;;;;;;5053349;28;20039;-79
2023/08/30 06:51:34;;;;;;;4.30;3.17;;;;;;;;;;5052074;28;20025;-80
2023/08/30 06:54:00;;;;;;;3.88;2.60;;;;;;;;;;5052839;28;20025;-79
2023/08/30 06:56:26;;;;;;;4.72;3.20;;;;;;;;;;5052125;28;20059;-79
2023/08/30 06:58:52;;;;;;;4.68;2.80;;;;;;;;;;5035245;28;20074;-80
2023/08/30 07:01:17;;;;;;;2.80;2.20;;;;;;;;;;5052154;28;20029;-80
2023/08/30 07:03:43;;;;;;;3.03;2.50;;;;;;;;;;5035131;28;20035;-79
2023/08/30 07:06:09;;;;;;;3.92;2.75;;;;;;;;;;5051926;28;20025;-80
2023/08/30 07:08:34;;;;;;;5.78;3.03;;;;;;;;;;5052278;28;20025;-80
2023/08/30 07:11:00;;;;;;;4.15;2.67;;;;;;;;;;5053177;28;20411;-80
2023/08/30 07:13:25;;;;;;;6.05;2.70;;;;;;;;;;5051782;28;20028;-80
2023/08/30 07:15:51;;;;;;;5.35;2.75;;;;;;;;;;5051546;28;20095;-80
2023/08/30 07:18:16;;;;;;;2.90;2.15;;;;;;;;;;5051876;28;20116;-79
2023/08/30 07:20:42;;;;;;;5.22;2.63;;;;;;;;;;5051482;28;20033;-79
2023/08/30 07:23:08;;;;;;;4.45;2.58;;;;;;;;;;5053334;28;20479;-79
2023/08/30 07:25:33;;;;;;;3.53;2.38;;;;;;;;;;5053605;28;20029;-79
2023/08/30 07:28:00;;;;;;;2.83;2.35;;;;;;;;;;5052920;28;20479;-79
2023/08/30 07:30:25;;;;;;;4.18;2.53;;;;;;;;;;5052017;28;20025;-79
2023/08/30 07:32:50;;;;;;;3.47;2.28;;;;;;;;;;5051788;28;20028;-79
2023/08/30 07:35:16;;;;;;;2.72;2.20;;;;;;;;;;5053062;28;20102;-79
2023/08/30 07:37:42;;;;;;;5.13;2.42;;;;;;;;;;5053241;28;20029;-78
2023/08/30 07:40:08;;;;;;;2.67;2.20;;;;;;;;;;5051855;28;20418;-80
2023/08/30 07:42:34;;;;;;;3.33;2.30;;;;;;;;;;5052842;28;20037;-79
2023/08/30 07:44:59;;;;;;;3.65;2.25;;;;;;;;;;5051658;28;20396;-79
2023/08/30 07:47:24;;;;;;;3.42;2.00;;;;;;;;;;5051693;28;20041;-79
2023/08/30 07:49:50;;;;;;;2.88;1.95;;;;;;;;;;5051326;28;20488;-79
2023/08/30 07:52:15;;;;;;;3.20;2.30;;;;;;;;;;5051793;28;20033;-79
2023/08/30 07:54:41;;;;;;;5.55;2.20;;;;;;;;;;5051694;28;20060;-79
2023/08/30 07:57:07;;;;;;;3.70;2.40;;;;;;;;;;5051206;28;20033;-79
2023/08/30 07:59:33;;;;;;;4.38;2.13;;;;;;;;;;5051243;28;20475;-78
2023/08/30 08:01:59;;;;;;;3.85;2.40;;;;;;;;;;5047364;28;20037;-79
2023/08/30 08:04:24;;;;;;;5.35;2.67;;;;;;;;;;5051310;28;20420;-79
2023/08/30 08:06:50;;;;;;;4.97;2.08;;;;;;;;;;5053276;28;20066;-79
2023/08/30 08:09:15;;;;;;;8.60;2.65;;;;;;;;;;5054703;28;20472;-79
2023/08/30 08:11:43;;;;;;;3.38;2.28;;;;;;;;;;5054965;28;20115;-79
2023/08/30 08:14:10;;;;;;;2.25;2.05;;;;;;;;;;5038512;28;20028;-78
2023/08/30 08:16:36;;;;;;;3.55;2.30;;;;;;;;;;5055141;28;20040;-78
2023/08/30 08:19:02;;;;;;;2.70;2.05;;;;;;;;;;5037777;28;20025;-79
2023/08/30 08:21:28;;;;;;;5.13;2.22;;;;;;;;;;5054455;28;20044;-78
2023/08/30 08:23:53;;;;;;;4.65;2.13;;;;;;;;;;5037894;28;20064;-79
2023/08/30 08:26:19;;;;;;;3.40;1.60;;;;;;;;;;5055802;28;20032;-78
2023/08/30 08:28:44;;;;;;;5.00;1.70;;;;;;;;;;5055142;28;20095;-80
2023/08/30 08:31:10;;;;;;;12.25;2.30;;;;;;;;;;5020592;28;20127;-79
2023/08/30 08:33:35;;;;;;;3.05;2.05;;;;;;;;;;5055564;28;20055;-79
2023/08/30 08:36:01;;;;;;;6.20;2.03;;;;;;;;;;5054400;28;20047;-79
2023/08/30 08:38:26;;;;;;;4.05;1.85;;;;;;;;;;5054039;28;20053;-80
2023/08/30 08:41:03;;;;;;;3.35;2.10;;;;;;;;;;5054053;28;20079;-79
2023/08/30 08:43:29;;;;;;;11.82;2.00;;;;;;;;;;5055634;28;20040;-77
2023/08/30 08:45:57;;;;;;;6.15;2.08;;;;;;;;;;5055653;28;20029;-79
2023/08/30 08:48:23;;;;;;;4.63;1.92;;;;;;;;;;5053923;28;20029;-79
2023/08/30 08:50:49;;;;;;;2.58;1.75;;;;;;;;;;5037928;28;20115;-80
2023/08/30 08:53:14;;;;;;;2.63;1.70;;;;;;;;;;5055325;28;20111;-79
2023/08/30 08:55:41;;;;;;;2.08;1.88;;;;;;;;;;5037754;28;20106;-79
2023/08/30 08:58:07;;;;;;;3.53;1.80;;;;;;;;;;5053959;28;20052;-79
2023/08/30 09:00:32;;;;;;;12.70;2.70;;;;;;;;;;5054100;28;20106;-79
2023/08/30 09:03:01;;;;;;;3.85;1.90;;;;;;;;;;5054542;28;20032;-79
2023/08/30 09:05:28;;;;;;;3.80;1.77;;;;;;;;;;5020958;28;20036;-78
2023/08/30 09:07:54;;;;;;;1.83;1.52;;;;;;;;;;5037565;28;20133;-78
2023/08/30 09:10:21;;;;;;;5.22;2.00;;;;;;;;;;5074734;22;20145;-78
2023/08/30 09:12:47;;;;;;;3.80;1.80;;;;;;;;;;5057258;28;20387;-78
2023/08/30 09:15:13;;;;;;;5.43;1.90;;;;;;;;;;5075042;28;20111;-78
2023/08/30 09:17:39;;;;;;;4.10;2.28;;;;;;;;;;5074671;28;20449;-78
2023/08/30 09:20:12;;;;;;;3.65;1.88;;;;;;;;;;5040334;28;20028;-78
2023/08/30 09:22:42;;;;;;;3.13;1.52;;;;;;;;;;5056976;28;20028;-78
2023/08/30 09:25:24;;;;;;;4.93;1.65;;;;;;;;;;5040223;28;20055;-78
2023/08/30 09:27:50;;;;;;;2.15;1.40;;;;;;;;;;5074755;28;20028;-78
2023/08/30 09:30:21;;;;;;;3.03;1.58;;;;;;;;;;5056976;28;20448;-78
2023/08/30 09:32:47;;;;;;;4.18;1.70;;;;;;;;;;5056790;28;20020;-78
2023/08/30 09:35:12;;;;;;;3.50;1.58;;;;;;;;;;5074451;28;20028;-78
2023/08/30 09:37:37;;;;;;;2.15;1.50;;;;;;;;;;5039702;28;20136;-78
2023/08/30 09:40:04;;;;;;;2.35;1.65;;;;;;;;;;5075083;28;20028;-78
2023/08/30 09:42:29;;;;;;;4.25;1.67;;;;;;;;;;5074414;28;20481;-78
2023/08/30 09:44:56;;;;;;;4.43;1.88;;;;;;;;;;5072995;28;20111;-79
2023/08/30 09:47:24;;;;;;;2.17;1.70;;;;;;;;;;5056216;28;20101;-78
2023/08/30 09:49:50;;;;;;;3.78;1.60;;;;;;;;;;5056043;28;20029;-80
2023/08/30 09:52:16;;;;;;;5.47;1.90;;;;;;;;;;5039927;28;20111;-78
2023/08/30 09:54:43;;;;;;;6.15;1.60;;;;;;;;;;5055261;28;20021;-80
2023/08/30 09:57:10;;;;;;;4.35;1.48;;;;;;;;;;5056102;28;20047;-81
2023/08/30 09:59:35;;;;;;;12.05;2.22;;;;;;;;;;5055908;28;20032;-81
2023/08/30 10:02:01;;;;;;;4.38;1.50;;;;;;;;;;5074346;28;20387;-81
2023/08/30 10:04:27;;;;;;;2.83;1.65;;;;;;;;;;5074310;28;20038;-81
2023/08/30 10:06:53;;;;;;;2.92;1.65;;;;;;;;;;5074846;28;20025;-81
2023/08/30 10:09:19;;;;;;;4.40;1.73;;;;;;;;;;5036122;28;20114;-81
2023/08/30 10:11:45;;;;;;;2.33;1.50;;;;;;;;;;5038198;28;20472;-81
2023/08/30 10:14:12;;;;;;;3.17;1.50;;;;;;;;;;5046796;28;20029;-81
2023/08/30 10:16:48;;;;;;;2.33;1.70;;;;;;;;;;5038804;28;20028;-81
2023/08/30 10:19:21;;;;;;;13.00;1.33;;;;;;;;;;5038202;28;20479;-78
2023/08/30 10:21:56;;;;;;;2.97;1.33;;;;;;;;;;5037865;28;20028;-80
2023/08/30 10:24:22;;;;;;;2.38;1.50;;;;;;;;;;5040473;28;20029;-80
2023/08/30 10:26:48;;;;;;;1.90;1.38;;;;;;;;;;5023974;28;20039;-80
2023/08/30 10:29:15;;;;;;;3.60;1.45;;;;;;;;;;5042416;28;20029;-81
2023/08/30 10:31:41;;;;;;;4.38;1.45;;;;;;;;;;5043833;28;20388;-79
2023/08/30 10:34:15;;;;;;;4.70;1.73;;;;;;;;;;5068993;28;20013;-80
2023/08/30 10:36:41;;;;;;;2.63;1.40;;;;;;;;;;5057981;28;20032;-79
2023/08/30 10:39:11;;;;;;;3.17;1.52;;;;;;;;;;5023052;28;20043;-78
2023/08/30 10:41:37;;;;;;;7.45;1.30;;;;;;;;;;5042477;28;20483;-79
2023/08/30 10:44:03;;;;;;;3.50;1.50;;;;;;;;;;5058653;28;20025;-78
2023/08/30 10:46:33;;;;;;;4.07;1.65;;;;;;;;;;5043537;28;20033;-80
2023/08/30 10:49:14;;;;;;;2.53;1.50;;;;;;;;;;5043528;28;20025;-80
2023/08/30 10:51:40;;;;;;;1.58;1.40;;;;;;;;;;5025186;28;20033;-79
2023/08/30 10:54:12;;;;;;;1.88;1.55;;;;;;;;;;5061500;28;20040;-79
2023/08/30 10:56:51;;;;;;;3.95;1.70;;;;;;;;;;5044885;28;20032;-80
2023/08/30 10:59:18;;;;;;;1.92;1.50;;;;;;;;;;5062552;28;20017;-81
2023/08/30 11:01:45;;;;;;;2.28;1.63;;;;;;;;;;5045921;28;20041;-82
2023/08/30 11:04:12;;;;;;;1.58;1.48;;;;;;;;;;5028523;28;20036;-79
2023/08/30 11:06:38;;;;;;;2.05;1.60;;;;;;;;;;5007161;28;20029;-79
2023/08/30 11:09:04;;;;;;;4.25;1.63;;;;;;;;;;5017538;28;20050;-79
2023/08/30 11:11:30;;;;;;;3.45;1.60;;;;;;;;;;5016784;28;20037;-78
2023/08/30 11:14:04;;;;;;;2.35;1.75;;;;;;;;;;5012057;28;20048;-79
2023/08/30 11:16:30;;;;;;;3.67;2.10;;;;;;;;;;5011795;28;20038;-79
2023/08/30 11:18:55;;;;;;;3.30;2.00;;;;;;;;;;5012844;28;20389;-80
2023/08/30 11:21:21;;;;;;;4.55;1.90;;;;;;;;;;5014872;28;20049;-79
2023/08/30 11:23:46;;;;;;;2.83;1.60;;;;;;;;;;4999542;28;20109;-79
2023/08/30 11:26:12;;;;;;;2.70;1.90;;;;;;;;;;5000522;28;20041;-79
2023/08/30 11:28:43;;;;;;;2.97;1.65;;;;;;;;;;5017846;28;20057;-79
2023/08/30 11:31:09;;;;;;;4.30;2.00;;;;;;;;;;5016162;28;20029;-79
2023/08/30 11:33:34;;;;;;;4.10;1.90;;;;;;;;;;5015576;28;20477;-78
2023/08/30 11:36:01;;;;;;;2.42;1.40;;;;;;;;;;5012932;28;20034;-78
2023/08/30 11:38:26;;;;;;;4.25;1.60;;;;;;;;;;5015929;28;20028;-78
2023/08/30 11:40:52;;;;;;;3.10;1.58;;;;;;;;;;5018620;28;20026;-78
2023/08/30 11:43:18;;;;;;;3.30;1.52;;;;;;;;;;5019391;28;20033;-78
2023/08/30 11:45:43;;;;;;;6.75;1.85;;;;;;;;;;5019420;28;20471;-78
2023/08/30 11:48:09;;;;;;;5.80;1.48;;;;;;;;;;5019006;28;20121;-80
2023/08/30 11:50:35;;;;;;;2.72;1.50;;;;;;;;;;5020721;28;20025;-79
2023/08/30 11:53:00;;;;;;;3.97;1.40;;;;;;;;;;5019515;28;20033;-78
2023/08/30 11:55:26;;;;;;;10.00;1.50;;;;;;;;;;5018432;28;20026;-78
2023/08/30 11:57:51;;;;;;;4.38;1.92;;;;;;;;;;5018071;28;20041;-78
2023/08/30 12:00:19;;;;;;;8.23;1.75;;;;;;;;;;5017087;28;20411;-80
2023/08/30 12:02:46;;;;;;;3.25;1.45;;;;;;;;;;4999456;28;20030;-78
2023/08/30 12:05:15;;;;;;;3.20;1.50;;;;;;;;;;5017367;28;20056;-78
2023/08/30 12:07:41;;;;;;;2.40;1.60;;;;;;;;;;5015621;28;20026;-78
2023/08/30 12:10:10;;;;;;;3.28;1.65;;;;;;;;;;5028442;28;20149;-78
2023/08/30 12:12:36;;;;;;;2.15;1.70;;;;;;;;;;5002599;28;20029;-78
2023/08/30 12:15:08;;;;;;;2.80;1.50;;;;;;;;;;5021706;28;20040;-78
2023/08/30 12:17:35;;;;;;;4.20;1.95;;;;;;;;;;5022034;28;20487;-77
2023/08/30 12:20:03;;;;;;;2.08;1.45;;;;;;;;;;5038988;28;20049;-78
2023/08/30 12:22:40;;;;;;;3.53;1.60;;;;;;;;;;5021113;28;20081;-78
2023/08/30 12:25:23;;;;;;;4.43;1.60;;;;;;;;;;5021362;28;20034;-78
2023/08/30 12:27:48;;;;;;;3.67;1.70;;;;;;;;;;5022023;28;20026;-78
2023/08/30 12:30:17;;;;;;;2.55;1.40;;;;;;;;;;5022464;28;20144;-78
2023/08/30 12:32:46;;;;;;;2.95;1.30;;;;;;;;;;5021765;28;20025;-78
2023/08/30 12:35:12;;;;;;;1.83;1.10;;;;;;;;;;5019329;28;20029;-78
2023/08/30 12:37:37;;;;;;;3.67;1.80;;;;;;;;;;5003705;28;20041;-78
2023/08/30 12:40:03;;;;;;;3.15;1.35;;;;;;;;;;5002376;28;20040;-79
2023/08/30 12:42:29;;;;;;;3.08;1.70;;;;;;;;;;5002870;28;20131;-82
2023/08/30 12:44:54;;;;;;;4.38;1.60;;;;;;;;;;5020651;28;20029;-80
2023/08/30 12:47:20;;;;;;;5.88;1.60;;;;;;;;;;5020051;28;20052;-80
2023/08/30 12:49:46;;;;;;;7.18;1.83;;;;;;;;;;5019146;28;20447;-79
2023/08/30 12:52:11;;;;;;;3.78;1.52;;;;;;;;;;5017921;28;20060;-78
2023/08/30 12:54:37;;;;;;;1.65;1.13;;;;;;;;;;5001950;28;20041;-78
2023/08/30 12:57:03;;;;;;;3.35;1.73;;;;;;;;;;5018161;28;20033;-80
2023/08/30 12:59:28;;;;;;;3.33;1.40;;;;;;;;;;5035932;28;20565;-79
2023/08/30 13:01:53;;;;;;;3.53;1.40;;;;;;;;;;5035198;28;20112;-79
2023/08/30 13:04:19;;;;;;;4.10;1.52;;;;;;;;;;5002550;28;20500;-79
2023/08/30 13:06:44;;;;;;;6.72;1.95;;;;;;;;;;5036506;28;20028;-79
2023/08/30 13:09:10;;;;;;;5.80;1.60;;;;;;;;;;5036382;28;20243;-79
2023/08/30 13:11:35;;;;;;;5.18;1.70;;;;;;;;;;5036059;28;20021;-79
2023/08/30 13:14:00;;;;;;;4.35;1.40;;;;;;;;;;5018052;28;20087;-78
2023/08/30 13:16:26;;;;;;;3.83;1.40;;;;;;;;;;5001476;28;20036;-78
2023/08/30 13:18:51;;;;;;;4.57;1.35;;;;;;;;;;5036185;28;20476;-78
2023/08/30 13:21:16;;;;;;;4.00;1.33;;;;;;;;;;5001600;28;20034;-78
2023/08/30 13:23:42;;;;;;;2.78;1.35;;;;;;;;;;5017812;28;20037;-78
2023/08/30 13:26:07;;;;;;;6.70;1.48;;;;;;;;;;5035838;28;20473;-78
2023/08/30 13:28:33;;;;;;;4.15;1.50;;;;;;;;;;5018400;28;20124;-79
2023/08/30 13:30:58;;;;;;;6.10;1.77;;;;;;;;;;5017675;28;20040;-77
2023/08/30 13:33:23;;;;;;;3.38;1.48;;;;;;;;;;5018829;28;20033;-77
2023/08/30 13:35:51;;;;;;;3.33;1.88;;;;;;;;;;5036861;28;20061;-79
2023/08/30 13:38:16;;;;;;;2.58;1.42;;;;;;;;;;5019859;28;20025;-78
2023/08/30 13:40:42;;;;;;;3.88;1.40;;;;;;;;;;5001659;28;20048;-78
2023/08/30 13:43:07;;;;;;;2.60;1.38;;;;;;;;;;5034392;28;20033;-78
2023/08/30 13:45:32;;;;;;;3.47;1.55;;;;;;;;;;5016457;28;20488;-79
2023/08/30 13:47:59;;;;;;;2.70;1.25;;;;;;;;;;5034097;28;20037;-78
2023/08/30 13:50:26;;;;;;;6.13;2.45;;;;;;;;;;5034144;28;20115;-78
2023/08/30 13:52:52;;;;;;;3.78;1.40;;;;;;;;;;5032138;28;20029;-78
2023/08/30 13:55:17;;;;;;;2.30;1.30;;;;;;;;;;5034154;28;20373;-79
2023/08/30 13:57:43;;;;;;;4.15;1.40;;;;;;;;;;5016352;28;20040;-78
2023/08/30 14:00:10;;;;;;;2.45;1.42;;;;;;;;;;5016445;28;20490;-78
2023/08/30 14:02:35;;;;;;;1.63;1.00;;;;;;;;;;5016634;28;20100;-78
2023/08/30 14:05:01;;;;;;;5.43;1.30;;;;;;;;;;5016878;28;20397;-79
2023/08/30 14:07:27;;;;;;;3.67;1.30;;;;;;;;;;5033976;28;20033;-79
2023/08/30 14:09:53;;;;;;;1.38;1.10;;;;;;;;;;5014306;28;20413;-79
2023/08/30 14:12:18;;;;;;;1.88;1.25;;;;;;;;;;5015907;28;20045;-79
2023/08/30 14:14:43;;;;;;;2.92;1.25;;;;;;;;;;5015902;28;20120;-80
2023/08/30 14:17:09;;;;;;;3.10;1.30;;;;;;;;;;5015784;28;20472;-80
2023/08/30 14:19:35;;;;;;;2.42;1.10;;;;;;;;;;5033563;28;20025;-79
2023/08/30 14:22:03;;;;;;;2.72;1.27;;;;;;;;;;5032188;28;20056;-79
2023/08/30 14:24:29;;;;;;;3.53;1.55;;;;;;;;;;5033437;28;20539;-79
2023/08/30 14:26:54;;;;;;;3.83;1.58;;;;;;;;;;5035213;28;20052;-79
2023/08/30 14:29:21;;;;;;;3.97;1.33;;;;;;;;;;5001810;28;20500;-79
2023/08/30 14:31:46;;;;;;;2.17;1.33;;;;;;;;;;5003244;28;20034;-78
2023/08/30 14:34:12;;;;;;;3.90;1.58;;;;;;;;;;5034621;28;20029;-78
2023/08/30 14:36:37;;;;;;;1.98;1.15;;;;;;;;;;5033609;28;20469;-78
2023/08/30 14:39:03;;;;;;;3.30;1.30;;;;;;;;;;5033380;28;20033;-78